Time;durP1;ratioP1;P1;durP2;ratioP2;P2;SDS_P1;SDS_P2;PMS_P1;PMS_P2;Temp;Humidity;BMP_temperature;BMP_pressure;BME280_temperature;BME280_humidity;BME280_pressure;Samples;Min_cycle;Max_cycle;Signal;HPM_P1;HPM_P2
2022/07/26 00:01:44;;;;;;;14.85;3.20;;;19.10;99.90;;;;;;5021001;28;20455;-71
2022/07/26 00:04:11;;;;;;;13.35;3.15;;;19.00;99.90;;;;;;5037118;28;20029;-72
2022/07/26 00:06:37;;;;;;;12.13;3.10;;;19.00;99.90;;;;;;5020565;28;20124;-72
2022/07/26 00:09:03;;;;;;;12.88;2.95;;;19.00;99.90;;;;;;5037615;28;20045;-72
2022/07/26 00:11:32;;;;;;;15.85;3.17;;;19.00;99.90;;;;;;5022199;28;20044;-71
2022/07/26 00:14:02;;;;;;;14.35;2.80;;;19.00;99.90;;;;;;5036948;28;20087;-72
2022/07/26 00:16:28;;;;;;;14.00;3.05;;;18.90;99.90;;;;;;5021450;28;20040;-72
2022/07/26 00:18:54;;;;;;;11.82;2.83;;;19.00;99.90;;;;;;5037006;28;20116;-72
2022/07/26 00:21:19;;;;;;;12.43;2.75;;;18.90;99.90;;;;;;5038031;28;20076;-72
2022/07/26 00:23:45;;;;;;;13.45;3.00;;;19.00;99.90;;;;;;5036841;28;20032;-72
2022/07/26 00:26:11;;;;;;;10.15;2.53;;;19.00;99.90;;;;;;5021509;28;20044;-72
2022/07/26 00:28:36;;;;;;;13.02;3.00;;;19.00;99.90;;;;;;5021251;28;20036;-71
2022/07/26 00:31:03;;;;;;;12.88;2.90;;;19.00;99.90;;;;;;5021203;28;20057;-71
2022/07/26 00:33:28;;;;;;;14.70;3.03;;;19.00;99.90;;;;;;5035948;28;20037;-70
2022/07/26 00:35:54;;;;;;;10.98;3.00;;;19.00;99.90;;;;;;5037489;28;20091;-70
2022/07/26 00:38:19;;;;;;;13.63;3.00;;;18.90;99.90;;;;;;5018275;28;20072;-70
2022/07/26 00:40:45;;;;;;;15.05;2.85;;;19.00;99.90;;;;;;5037559;28;20041;-71
2022/07/26 00:43:11;;;;;;;13.27;3.15;;;19.00;99.90;;;;;;5020228;28;20045;-71
2022/07/26 00:45:36;;;;;;;12.32;3.40;;;19.00;99.90;;;;;;5021561;28;20036;-71
2022/07/26 00:48:02;;;;;;;10.55;3.13;;;18.90;99.90;;;;;;5032176;28;20033;-72
2022/07/26 00:50:28;;;;;;;15.35;3.42;;;19.00;99.90;;;;;;5020877;28;20040;-72
2022/07/26 00:52:54;;;;;;;16.88;3.60;;;19.00;99.90;;;;;;5032071;28;20028;-71
2022/07/26 00:55:20;;;;;;;14.43;3.17;;;18.90;99.90;;;;;;5020472;28;20512;-72
2022/07/26 00:57:46;;;;;;;14.88;3.42;;;19.00;99.90;;;;;;5017250;28;20041;-72
2022/07/26 01:00:15;;;;;;;13.27;3.20;;;19.00;99.90;;;;;;5052685;28;20390;-71
2022/07/26 01:02:40;;;;;;;12.90;3.00;;;19.00;99.90;;;;;;5019551;28;20033;-71
2022/07/26 01:05:06;;;;;;;12.50;3.03;;;19.00;99.90;;;;;;5033423;28;20045;-72
2022/07/26 01:07:33;;;;;;;13.88;2.80;;;19.00;99.90;;;;;;5023591;28;20040;-71
2022/07/26 01:10:00;;;;;;;13.90;2.95;;;18.90;99.90;;;;;;5033400;28;20056;-72
2022/07/26 01:12:26;;;;;;;14.23;3.05;;;18.90;99.90;;;;;;5018612;28;20041;-72
2022/07/26 01:14:51;;;;;;;14.52;2.85;;;18.80;99.90;;;;;;5019848;28;20448;-72
2022/07/26 01:17:17;;;;;;;12.80;3.08;;;18.80;99.90;;;;;;5019192;28;20041;-71
2022/07/26 01:19:42;;;;;;;14.18;3.10;;;18.80;99.90;;;;;;5038458;28;20041;-72
2022/07/26 01:22:08;;;;;;;12.65;2.90;;;18.80;99.90;;;;;;5032806;28;20437;-72
2022/07/26 01:24:33;;;;;;;12.10;2.97;;;18.70;99.90;;;;;;5034430;28;20036;-72
2022/07/26 01:26:59;;;;;;;12.88;2.78;;;18.80;99.90;;;;;;5035680;28;20162;-72
2022/07/26 01:29:25;;;;;;;12.98;3.25;;;18.70;99.90;;;;;;5032578;28;20041;-72
2022/07/26 01:31:51;;;;;;;11.52;3.30;;;18.80;99.90;;;;;;5046716;28;20072;-72
2022/07/26 01:34:18;;;;;;;11.40;2.40;;;18.90;99.90;;;;;;5034445;28;20080;-71
2022/07/26 01:36:43;;;;;;;13.43;3.03;;;18.80;99.90;;;;;;5017969;28;20032;-72
2022/07/26 01:39:09;;;;;;;11.07;2.92;;;18.70;99.90;;;;;;5033020;28;20163;-71
2022/07/26 01:41:35;;;;;;;13.73;2.63;;;18.80;99.90;;;;;;5034610;28;20041;-72
2022/07/26 01:44:01;;;;;;;11.93;2.88;;;18.80;99.90;;;;;;5018792;28;20036;-71
2022/07/26 01:46:26;;;;;;;12.15;2.80;;;18.80;99.90;;;;;;5018120;28;20410;-71
2022/07/26 01:48:52;;;;;;;13.27;2.50;;;18.80;99.90;;;;;;5034761;28;20041;-71
2022/07/26 01:51:18;;;;;;;12.15;2.80;;;18.80;99.90;;;;;;5034860;28;20115;-72
2022/07/26 01:53:44;;;;;;;13.50;2.63;;;18.70;99.90;;;;;;5033697;28;20522;-71
2022/07/26 01:56:11;;;;;;;13.05;2.67;;;18.70;99.90;;;;;;5034581;28;20083;-71
2022/07/26 01:58:36;;;;;;;10.25;2.72;;;18.70;99.90;;;;;;5017025;28;20041;-71
2022/07/26 02:01:02;;;;;;;12.30;2.70;;;18.70;99.90;;;;;;5018947;28;20052;-71
2022/07/26 02:03:28;;;;;;;9.90;2.60;;;18.70;99.90;;;;;;5033840;28;20048;-71
2022/07/26 02:05:53;;;;;;;10.00;2.70;;;18.70;99.90;;;;;;5033636;28;20044;-70
2022/07/26 02:08:19;;;;;;;12.10;2.70;;;18.60;99.90;;;;;;5032730;28;20049;-71
2022/07/26 02:10:59;;;;;;;10.05;2.40;;;18.60;99.90;;;;;;5022692;28;20128;-71
2022/07/26 02:13:36;;;;;;;9.95;2.70;;;18.60;99.90;;;;;;5032739;28;20435;-71
2022/07/26 02:16:10;;;;;;;9.90;2.30;;;18.60;99.90;;;;;;5034162;28;20556;-72
2022/07/26 02:18:36;;;;;;;10.70;2.67;;;18.50;99.90;;;;;;5018759;28;20037;-72
2022/07/26 02:21:03;;;;;;;10.73;2.40;;;18.60;99.90;;;;;;5018180;28;20032;-71
2022/07/26 02:23:29;;;;;;;8.63;2.55;;;18.60;99.90;;;;;;5034771;28;20045;-71
2022/07/26 02:25:55;;;;;;;7.45;2.10;;;18.60;99.90;;;;;;5018990;28;20043;-71
2022/07/26 02:28:21;;;;;;;7.35;2.00;;;18.50;99.90;;;;;;5033957;28;20052;-71
2022/07/26 02:30:48;;;;;;;9.30;2.33;;;18.50;99.90;;;;;;5045935;28;20501;-71
2022/07/26 02:33:14;;;;;;;9.45;2.50;;;18.50;99.90;;;;;;5048650;28;20131;-71
2022/07/26 02:35:42;;;;;;;9.82;2.42;;;18.50;99.90;;;;;;5042586;28;20045;-71
2022/07/26 02:38:10;;;;;;;7.65;2.17;;;18.50;99.90;;;;;;5016986;28;20451;-71
2022/07/26 02:40:37;;;;;;;7.22;2.10;;;18.50;99.90;;;;;;5032723;28;20052;-71
2022/07/26 02:43:05;;;;;;;8.20;2.25;;;18.40;99.90;;;;;;5015989;28;20075;-72
2022/07/26 02:45:30;;;;;;;6.93;2.47;;;18.50;99.90;;;;;;5018377;28;20516;-71
2022/07/26 02:47:56;;;;;;;7.68;2.40;;;18.40;99.90;;;;;;5034137;28;20040;-71
2022/07/26 02:50:24;;;;;;;7.57;2.47;;;18.40;99.90;;;;;;5033887;28;20040;-71
2022/07/26 02:52:51;;;;;;;7.85;2.30;;;18.30;99.90;;;;;;5041062;28;20072;-71
2022/07/26 02:55:19;;;;;;;7.78;2.50;;;18.30;99.90;;;;;;5034279;28;20064;-71
2022/07/26 02:57:45;;;;;;;7.13;2.05;;;18.30;99.90;;;;;;5033464;28;20049;-70
2022/07/26 03:00:12;;;;;;;6.25;1.95;;;18.20;99.90;;;;;;5016545;28;20060;-71
2022/07/26 03:02:38;;;;;;;7.05;2.47;;;18.20;99.90;;;;;;5013488;28;20040;-71
2022/07/26 03:05:05;;;;;;;8.48;2.20;;;18.20;99.90;;;;;;5034671;28;20038;-71
2022/07/26 03:07:32;;;;;;;10.27;2.42;;;18.10;99.90;;;;;;5017050;28;20040;-72
2022/07/26 03:09:58;;;;;;;7.82;2.60;;;18.20;99.90;;;;;;5035121;28;20041;-72
2022/07/26 03:12:24;;;;;;;7.25;1.90;;;18.20;99.90;;;;;;5032359;28;20055;-72
2022/07/26 03:14:50;;;;;;;5.05;1.88;;;18.20;99.90;;;;;;5021449;28;20119;-72
2022/07/26 03:17:15;;;;;;;6.03;1.90;;;18.20;99.90;;;;;;5034814;28;20037;-72
2022/07/26 03:19:41;;;;;;;5.63;2.10;;;18.20;99.90;;;;;;5036104;28;20041;-72
2022/07/26 03:22:06;;;;;;;6.50;2.17;;;18.10;99.90;;;;;;5037161;28;20036;-72
2022/07/26 03:24:32;;;;;;;5.68;1.90;;;18.10;99.90;;;;;;5019555;28;20508;-72
2022/07/26 03:26:57;;;;;;;5.15;1.85;;;18.10;99.90;;;;;;5036021;28;20051;-72
2022/07/26 03:29:23;;;;;;;6.43;2.10;;;18.10;99.90;;;;;;5036154;28;20087;-72
2022/07/26 03:31:49;;;;;;;3.88;1.55;;;18.10;99.90;;;;;;5033747;28;20052;-72
2022/07/26 03:34:15;;;;;;;6.30;1.83;;;18.10;99.90;;;;;;5038795;28;20045;-71
2022/07/26 03:36:42;;;;;;;3.70;1.60;;;18.10;99.90;;;;;;5019646;28;20123;-73
2022/07/26 03:39:08;;;;;;;4.40;1.35;;;18.10;99.90;;;;;;5036841;28;20033;-72
2022/07/26 03:41:34;;;;;;;3.80;1.73;;;18.10;99.90;;;;;;5021147;28;20033;-72
2022/07/26 03:43:59;;;;;;;6.30;1.70;;;18.10;99.90;;;;;;5036822;28;20071;-72
2022/07/26 03:46:25;;;;;;;5.43;2.00;;;18.00;99.90;;;;;;5036272;28;20091;-72
2022/07/26 03:48:51;;;;;;;6.53;1.92;;;18.00;99.90;;;;;;5035436;28;20059;-72
2022/07/26 03:51:16;;;;;;;4.20;1.58;;;18.00;99.90;;;;;;5035288;28;20037;-72
2022/07/26 03:53:42;;;;;;;6.70;1.73;;;18.00;99.90;;;;;;5020866;28;20032;-72
2022/07/26 03:58:52;;;;;;;6.20;2.00;;;17.90;99.90;;;;;;5029724;28;20041;-72
2022/07/26 04:01:17;;;;;;;6.10;1.80;;;18.00;99.90;;;;;;5036095;28;20040;-71
2022/07/26 04:03:43;;;;;;;5.25;1.80;;;17.90;99.90;;;;;;5036924;28;20086;-72
2022/07/26 04:06:09;;;;;;;6.65;2.00;;;17.90;99.90;;;;;;5021164;28;20405;-72
2022/07/26 04:08:35;;;;;;;4.93;1.70;;;17.90;99.90;;;;;;5038486;28;20390;-72
2022/07/26 04:11:01;;;;;;;5.85;1.70;;;17.90;99.90;;;;;;5032958;28;20467;-72
2022/07/26 04:13:26;;;;;;;7.78;1.65;;;17.90;99.90;;;;;;5020597;28;20048;-72
2022/07/26 04:15:52;;;;;;;4.30;1.77;;;17.80;99.90;;;;;;5033062;28;20043;-72
2022/07/26 04:18:17;;;;;;;6.60;1.90;;;17.80;99.90;;;;;;5036173;28;20120;-72
2022/07/26 04:20:43;;;;;;;6.35;1.77;;;17.80;99.90;;;;;;5021368;28;20087;-72
2022/07/26 04:23:09;;;;;;;5.63;1.73;;;17.80;99.90;;;;;;5019504;28;20040;-72
2022/07/26 04:25:34;;;;;;;7.47;2.40;;;17.80;99.90;;;;;;5038065;28;20064;-72
2022/07/26 04:28:00;;;;;;;5.57;1.67;;;17.80;99.90;;;;;;5040520;28;20489;-72
2022/07/26 04:30:27;;;;;;;4.97;1.63;;;17.80;99.90;;;;;;5018560;28;20045;-72
2022/07/26 04:32:52;;;;;;;8.18;1.90;;;17.70;99.90;;;;;;5032764;28;20529;-72
2022/07/26 04:35:18;;;;;;;7.25;1.80;;;17.80;99.90;;;;;;5036714;28;20128;-72
2022/07/26 04:37:44;;;;;;;6.57;1.63;;;17.80;99.90;;;;;;5018851;28;20033;-72
2022/07/26 04:40:16;;;;;;;5.75;1.80;;;17.80;99.90;;;;;;5034480;28;20036;-72
2022/07/26 04:42:42;;;;;;;6.93;1.90;;;17.90;99.90;;;;;;5036799;28;20551;-72
2022/07/26 04:45:09;;;;;;;6.22;2.03;;;17.90;99.90;;;;;;5018028;28;20033;-72
2022/07/26 04:47:35;;;;;;;6.05;1.73;;;17.90;99.90;;;;;;5035643;28;20405;-72
2022/07/26 04:50:01;;;;;;;5.75;1.80;;;17.90;99.90;;;;;;5036040;28;20048;-72
2022/07/26 04:52:26;;;;;;;6.13;1.67;;;17.90;99.90;;;;;;5039168;28;20657;-72
2022/07/26 04:54:52;;;;;;;5.28;1.50;;;17.90;99.90;;;;;;5036333;28;20041;-72
2022/07/26 04:57:17;;;;;;;7.90;1.65;;;17.90;99.90;;;;;;5035171;28;20409;-72
2022/07/26 04:59:43;;;;;;;7.30;1.85;;;17.90;99.90;;;;;;5020040;28;20072;-72
2022/07/26 05:02:09;;;;;;;8.25;1.70;;;17.90;99.90;;;;;;5034641;28;20033;-72
2022/07/26 05:04:34;;;;;;;6.63;1.70;;;17.90;99.90;;;;;;5034203;28;20476;-72
2022/07/26 05:07:03;;;;;;;6.95;1.38;;;17.90;99.90;;;;;;5037097;28;20123;-72
2022/07/26 05:09:28;;;;;;;9.65;2.00;;;17.90;99.90;;;;;;5018430;28;20037;-72
2022/07/26 05:11:54;;;;;;;7.85;1.90;;;17.80;99.90;;;;;;5017176;28;20452;-72
2022/07/26 05:14:20;;;;;;;7.70;1.10;;;17.80;99.90;;;;;;5035182;28;20107;-71
2022/07/26 05:16:46;;;;;;;5.55;1.20;;;17.80;99.90;;;;;;5036019;28;20045;-72
2022/07/26 05:19:12;;;;;;;7.25;1.48;;;17.70;99.90;;;;;;5019331;28;20033;-72
2022/07/26 05:21:38;;;;;;;5.80;1.65;;;17.70;99.90;;;;;;5035680;28;20033;-72
2022/07/26 05:24:04;;;;;;;5.03;1.42;;;17.70;99.90;;;;;;5035170;28;20036;-72
2022/07/26 05:26:30;;;;;;;7.10;1.33;;;17.70;99.90;;;;;;5035827;28;20040;-72
2022/07/26 05:28:55;;;;;;;5.47;1.40;;;17.70;99.90;;;;;;5034460;28;20045;-72
2022/07/26 05:31:21;;;;;;;6.18;1.35;;;17.70;99.90;;;;;;5033107;28;20136;-72
2022/07/26 05:33:46;;;;;;;6.38;1.10;;;17.70;99.90;;;;;;5034661;28;20456;-72
2022/07/26 05:36:12;;;;;;;7.15;1.42;;;17.70;99.90;;;;;;5034017;28;20496;-72
2022/07/26 05:38:38;;;;;;;7.07;1.20;;;17.70;99.90;;;;;;5037831;28;20116;-72
2022/07/26 05:41:04;;;;;;;5.97;1.20;;;17.70;99.90;;;;;;5035392;28;20404;-72
2022/07/26 05:43:30;;;;;;;4.93;1.20;;;17.70;99.90;;;;;;5022996;28;20087;-72
2022/07/26 05:45:56;;;;;;;6.75;1.20;;;17.70;99.90;;;;;;5024973;28;20037;-72
2022/07/26 05:48:22;;;;;;;7.07;1.30;;;17.70;99.90;;;;;;5002689;28;20548;-72
2022/07/26 05:50:49;;;;;;;4.93;1.13;;;17.70;99.90;;;;;;5006397;28;20123;-72
2022/07/26 05:53:14;;;;;;;4.53;0.90;;;17.70;99.90;;;;;;5027326;28;20038;-72
2022/07/26 05:55:40;;;;;;;5.45;0.95;;;17.70;99.90;;;;;;5021029;28;20037;-72
2022/07/26 05:58:06;;;;;;;5.50;1.00;;;17.70;99.90;;;;;;5035335;28;20063;-71
2022/07/26 06:00:31;;;;;;;5.82;0.95;;;17.70;99.90;;;;;;5015278;28;20477;-72
2022/07/26 06:02:57;;;;;;;5.13;0.80;;;17.60;99.90;;;;;;5034725;28;20040;-71
2022/07/26 06:05:23;;;;;;;4.95;1.00;;;17.50;99.90;;;;;;5033630;28;20037;-71
2022/07/26 06:07:49;;;;;;;5.85;1.10;;;17.40;99.90;;;;;;5014418;28;20182;-71
2022/07/26 06:10:14;;;;;;;4.32;0.68;;;17.30;99.90;;;;;;5017995;28;20055;-72
2022/07/26 06:12:40;;;;;;;4.13;0.88;;;17.30;99.90;;;;;;5024951;28;20102;-72
2022/07/26 06:15:06;;;;;;;3.95;0.93;;;17.30;99.90;;;;;;5033953;28;20401;-71
2022/07/26 06:17:32;;;;;;;4.25;0.82;;;17.20;99.90;;;;;;5017547;28;20123;-71
2022/07/26 06:19:58;;;;;;;5.30;0.70;;;17.30;99.90;;;;;;5032979;28;20455;-72
2022/07/26 06:22:24;;;;;;;4.18;0.80;;;17.30;99.90;;;;;;5016273;28;20033;-71
2022/07/26 06:24:50;;;;;;;5.45;1.00;;;17.30;99.90;;;;;;5028990;28;20482;-71
2022/07/26 06:27:16;;;;;;;4.22;0.90;;;17.40;99.90;;;;;;5037296;28;20044;-71
2022/07/26 06:29:41;;;;;;;3.05;0.82;;;17.40;99.90;;;;;;5018206;28;20040;-71
2022/07/26 06:32:07;;;;;;;5.53;0.90;;;17.50;99.90;;;;;;5056493;28;20548;-71
2022/07/26 06:34:32;;;;;;;3.83;0.68;;;17.50;99.90;;;;;;5020595;28;20044;-71
2022/07/26 06:36:58;;;;;;;3.80;0.90;;;17.50;99.90;;;;;;5033078;28;20045;-71
2022/07/26 06:39:23;;;;;;;4.15;0.90;;;17.60;99.90;;;;;;5032278;28;20039;-71
2022/07/26 06:41:49;;;;;;;6.95;0.75;;;17.60;99.90;;;;;;5034120;28;20040;-71
2022/07/26 06:44:15;;;;;;;3.42;0.60;;;17.70;99.90;;;;;;5016590;28;20072;-71
2022/07/26 06:46:40;;;;;;;4.93;0.80;;;17.70;99.90;;;;;;5014049;28;20504;-71
2022/07/26 06:49:06;;;;;;;3.75;1.10;;;17.80;99.90;;;;;;5016805;28;20049;-71
2022/07/26 06:51:31;;;;;;;4.28;0.90;;;17.70;99.90;;;;;;5018709;28;20045;-71
2022/07/26 06:53:57;;;;;;;4.45;0.70;;;17.70;99.90;;;;;;5013766;28;20037;-71
2022/07/26 06:56:23;;;;;;;5.13;1.00;;;17.60;99.90;;;;;;5024047;28;20068;-71
2022/07/26 06:58:49;;;;;;;4.97;1.00;;;17.60;99.90;;;;;;5031814;28;20091;-71
2022/07/26 07:01:14;;;;;;;3.30;0.75;;;17.60;99.90;;;;;;5040617;28;20033;-71
2022/07/26 07:03:40;;;;;;;2.47;0.90;;;17.60;99.90;;;;;;5034803;28;20041;-74
2022/07/26 07:06:06;;;;;;;6.75;0.90;;;17.60;99.90;;;;;;5033885;28;20120;-77
2022/07/26 07:08:32;;;;;;;5.07;0.88;;;17.70;99.90;;;;;;5032141;28;20033;-71
2022/07/26 07:10:58;;;;;;;6.40;0.70;;;17.60;99.90;;;;;;5022658;28;20041;-71
2022/07/26 07:13:23;;;;;;;5.45;0.85;;;17.40;99.90;;;;;;5033485;28;20093;-71
2022/07/26 07:15:49;;;;;;;6.22;0.80;;;17.40;99.90;;;;;;5016198;28;20045;-71
2022/07/26 07:18:14;;;;;;;5.95;1.00;;;17.30;99.90;;;;;;5017798;28;20068;-71
2022/07/26 07:20:40;;;;;;;8.20;1.15;;;17.30;99.90;;;;;;5033730;28;20481;-71
2022/07/26 07:23:07;;;;;;;4.80;0.80;;;17.30;99.90;;;;;;5031666;28;20045;-71
2022/07/26 07:25:32;;;;;;;6.07;1.17;;;17.40;99.90;;;;;;5033169;28;20087;-71
2022/07/26 07:27:58;;;;;;;4.78;1.15;;;17.40;99.90;;;;;;5032668;28;20072;-71
2022/07/26 07:30:25;;;;;;;4.28;0.90;;;17.40;99.90;;;;;;5032991;28;20056;-71
2022/07/26 07:32:50;;;;;;;5.82;0.90;;;17.60;99.90;;;;;;5022113;28;20059;-71
2022/07/26 07:35:16;;;;;;;5.13;0.80;;;17.70;99.90;;;;;;5034425;28;20037;-71
2022/07/26 07:37:42;;;;;;;5.40;1.00;;;17.90;99.90;;;;;;5017027;28;20128;-71
2022/07/26 07:40:08;;;;;;;5.88;1.00;;;18.00;99.90;;;;;;5032203;28;20052;-71
2022/07/26 07:42:35;;;;;;;5.38;0.90;;;18.10;99.90;;;;;;5025894;28;20484;-71
2022/07/26 07:45:01;;;;;;;5.13;0.88;;;18.20;99.90;;;;;;5034382;28;20187;-71
2022/07/26 07:47:27;;;;;;;8.57;1.00;;;18.20;99.90;;;;;;5016871;28;20041;-71
2022/07/26 07:49:52;;;;;;;4.72;0.77;;;18.30;99.90;;;;;;5029874;28;20052;-71
2022/07/26 07:52:18;;;;;;;6.95;0.88;;;18.30;99.90;;;;;;5033434;28;20128;-71
2022/07/26 07:54:43;;;;;;;5.93;0.80;;;18.30;99.90;;;;;;5033854;28;20489;-71
2022/07/26 07:57:09;;;;;;;5.10;1.00;;;18.20;99.90;;;;;;5016985;28;20033;-71
2022/07/26 07:59:35;;;;;;;5.50;0.90;;;18.30;99.90;;;;;;5009683;28;20124;-71
2022/07/26 08:02:00;;;;;;;6.22;1.00;;;18.30;99.90;;;;;;5034841;28;20452;-71
2022/07/26 08:04:26;;;;;;;5.70;1.08;;;18.30;99.90;;;;;;5022057;28;20033;-71
2022/07/26 08:06:51;;;;;;;7.50;1.00;;;18.30;99.90;;;;;;5037629;28;20481;-70
2022/07/26 08:09:18;;;;;;;7.82;1.23;;;18.30;99.90;;;;;;5021094;28;20474;-71
2022/07/26 08:11:43;;;;;;;5.32;1.40;;;18.30;99.90;;;;;;5038042;28;20076;-71
2022/07/26 08:14:09;;;;;;;5.15;0.73;;;18.40;99.90;;;;;;5021458;28;20083;-71
2022/07/26 08:16:35;;;;;;;3.25;1.27;;;18.40;99.90;;;;;;5017360;28;20029;-71
2022/07/26 08:19:00;;;;;;;6.50;1.00;;;18.50;99.90;;;;;;5020975;28;20374;-71
2022/07/26 08:21:26;;;;;;;6.65;1.10;;;18.60;99.90;;;;;;5021605;28;20041;-71
2022/07/26 08:23:51;;;;;;;8.63;0.98;;;18.60;99.90;;;;;;5017617;28;20069;-71
2022/07/26 08:26:17;;;;;;;5.43;1.02;;;18.70;99.90;;;;;;5017237;28;20127;-71
2022/07/26 08:28:43;;;;;;;5.85;1.15;;;18.70;99.90;;;;;;5032340;28;20037;-71
2022/07/26 08:31:09;;;;;;;7.97;1.23;;;18.50;99.90;;;;;;5035837;28;20271;-71
2022/07/26 08:33:34;;;;;;;8.10;1.20;;;18.40;99.90;;;;;;5054356;28;20044;-71
2022/07/26 08:36:00;;;;;;;6.40;1.13;;;18.40;99.90;;;;;;5020820;28;20033;-71
2022/07/26 08:38:25;;;;;;;4.70;0.90;;;18.40;99.90;;;;;;5037093;28;20037;-71
2022/07/26 08:40:51;;;;;;;6.28;1.13;;;18.40;99.90;;;;;;5037508;28;20041;-71
2022/07/26 08:43:16;;;;;;;6.90;1.02;;;18.30;99.90;;;;;;5036162;28;20029;-71
2022/07/26 08:45:44;;;;;;;8.18;1.30;;;18.30;99.90;;;;;;5037237;28;20557;-71
2022/07/26 08:48:10;;;;;;;4.30;0.85;;;18.30;99.90;;;;;;5020458;28;20127;-71
2022/07/26 08:50:36;;;;;;;5.60;1.20;;;18.30;99.90;;;;;;5020864;28;20171;-71
2022/07/26 08:53:05;;;;;;;5.03;1.13;;;18.30;99.90;;;;;;5036845;28;20045;-72
2022/07/26 08:55:31;;;;;;;7.10;1.23;;;18.40;99.90;;;;;;5020488;28;20436;-71
2022/07/26 08:57:57;;;;;;;5.95;1.35;;;18.30;99.90;;;;;;5037250;28;20037;-72
2022/07/26 09:00:25;;;;;;;8.02;1.20;;;18.30;99.90;;;;;;5035732;28;20504;-71
2022/07/26 09:02:52;;;;;;;5.00;0.90;;;18.40;99.90;;;;;;5052250;28;20102;-71
2022/07/26 09:05:19;;;;;;;6.97;1.10;;;18.40;99.90;;;;;;5053584;28;20485;-71
2022/07/26 09:07:46;;;;;;;5.45;0.90;;;18.30;99.90;;;;;;5053143;28;20559;-72
2022/07/26 09:10:13;;;;;;;3.83;1.00;;;18.30;99.90;;;;;;5051624;28;20053;-72
2022/07/26 09:12:40;;;;;;;7.68;1.20;;;18.30;99.90;;;;;;5020093;28;20069;-72
2022/07/26 09:15:16;;;;;;;6.28;1.05;;;18.40;99.90;;;;;;4997212;28;20045;-72
2022/07/26 09:17:45;;;;;;;7.03;1.50;;;18.50;99.90;;;;;;5034475;28;20037;-71
2022/07/26 09:20:14;;;;;;;4.68;1.10;;;18.60;99.90;;;;;;5019263;28;20125;-72
2022/07/26 09:23:01;;;;;;;6.10;1.20;;;18.70;99.90;;;;;;5039134;28;20439;-72
2022/07/26 09:25:33;;;;;;;8.00;1.15;;;18.80;99.90;;;;;;5036539;28;20033;-72
2022/07/26 09:28:00;;;;;;;7.70;1.40;;;19.00;99.90;;;;;;5037026;28;20397;-72
2022/07/26 09:30:28;;;;;;;5.63;1.42;;;19.10;99.90;;;;;;5018653;28;20068;-72
2022/07/26 09:33:05;;;;;;;7.70;1.10;;;19.20;99.90;;;;;;5031810;28;20393;-72
2022/07/26 09:35:38;;;;;;;5.53;1.13;;;19.10;99.90;;;;;;5018039;28;20090;-72
2022/07/26 09:38:14;;;;;;;7.85;1.33;;;19.20;99.90;;;;;;5036444;28;20073;-72
2022/07/26 09:40:40;;;;;;;5.50;1.33;;;19.20;99.90;;;;;;5035492;28;20037;-72
2022/07/26 09:43:07;;;;;;;12.15;2.05;;;19.10;99.90;;;;;;5034580;28;20043;-72
2022/07/26 09:45:34;;;;;;;6.85;1.38;;;18.70;99.90;;;;;;5034916;28;20044;-72
2022/07/26 09:48:02;;;;;;;9.30;1.52;;;18.70;99.90;;;;;;5015939;28;20044;-72
2022/07/26 09:50:32;;;;;;;5.78;1.30;;;18.80;99.90;;;;;;5024553;28;20049;-72
2022/07/26 09:53:07;;;;;;;7.93;1.60;;;18.80;99.90;;;;;;5031571;28;20068;-72
2022/07/26 09:55:56;;;;;;;5.00;1.13;;;18.80;99.90;;;;;;5032851;28;20128;-72
2022/07/26 09:58:22;;;;;;;8.02;1.30;;;18.90;99.90;;;;;;5006693;28;20048;-72
2022/07/26 10:00:48;;;;;;;7.57;1.42;;;19.10;99.90;;;;;;5026938;28;20037;-72
2022/07/26 10:03:14;;;;;;;7.03;1.35;;;19.20;99.90;;;;;;5045670;28;20036;-72
2022/07/26 10:05:40;;;;;;;9.70;1.80;;;19.30;99.90;;;;;;5012584;28;20033;-72
2022/07/26 10:08:07;;;;;;;10.25;1.73;;;19.30;99.90;;;;;;5009389;28;20041;-72
2022/07/26 10:10:41;;;;;;;9.48;2.38;;;19.30;99.90;;;;;;5001683;28;20124;-73
2022/07/26 10:13:08;;;;;;;10.43;1.95;;;19.40;99.90;;;;;;5015739;28;20125;-72
2022/07/26 10:15:42;;;;;;;9.50;1.85;;;19.60;99.90;;;;;;5005020;28;20561;-73
2022/07/26 10:18:10;;;;;;;9.55;1.90;;;19.80;99.90;;;;;;5025099;28;20041;-72
2022/07/26 10:20:43;;;;;;;10.25;2.00;;;19.90;99.90;;;;;;5002856;28;20504;-72
2022/07/26 10:23:30;;;;;;;11.93;2.53;;;20.00;99.90;;;;;;5008950;28;20032;-72
2022/07/26 10:25:56;;;;;;;10.38;1.77;;;19.90;99.90;;;;;;5031574;28;20040;-72
2022/07/26 10:28:23;;;;;;;10.32;1.95;;;19.60;99.90;;;;;;5015297;28;20581;-72
2022/07/26 10:30:49;;;;;;;10.10;1.95;;;19.40;99.90;;;;;;5033756;28;20560;-72
2022/07/26 10:33:16;;;;;;;13.60;2.20;;;19.20;99.90;;;;;;5046935;28;20045;-72
2022/07/26 10:35:42;;;;;;;10.15;2.20;;;19.10;99.90;;;;;;5031779;28;20454;-72
2022/07/26 10:38:09;;;;;;;10.90;1.80;;;19.20;99.90;;;;;;5017290;28;20033;-72
2022/07/26 10:40:37;;;;;;;11.57;2.22;;;19.10;99.90;;;;;;5016287;28;20033;-72
2022/07/26 10:43:09;;;;;;;10.02;2.08;;;19.20;99.90;;;;;;5017563;28;20555;-72
2022/07/26 10:45:36;;;;;;;10.65;1.80;;;19.30;99.90;;;;;;5007737;28;20035;-72
2022/07/26 10:48:19;;;;;;;10.80;2.17;;;19.30;99.90;;;;;;5013724;28;20495;-72
2022/07/26 10:50:51;;;;;;;9.32;2.10;;;19.40;99.90;;;;;;5009514;28;20039;-72
2022/07/26 10:53:17;;;;;;;10.85;2.10;;;19.40;99.90;;;;;;5031605;28;20045;-72
2022/07/26 10:55:54;;;;;;;10.77;2.03;;;19.40;99.90;;;;;;5015067;28;20509;-72
2022/07/26 10:58:25;;;;;;;10.30;2.03;;;19.40;99.90;;;;;;5016123;28;20045;-72
2022/07/26 11:01:03;;;;;;;10.65;1.70;;;19.30;99.90;;;;;;5011560;28;20095;-72
2022/07/26 11:03:41;;;;;;;7.35;1.58;;;19.30;99.90;;;;;;5016960;28;20075;-73
2022/07/26 11:06:13;;;;;;;9.55;1.83;;;19.40;99.90;;;;;;5015846;28;20120;-72
2022/07/26 11:08:40;;;;;;;9.43;2.03;;;19.50;99.90;;;;;;5031961;28;20549;-72
2022/07/26 11:11:05;;;;;;;8.48;1.77;;;19.60;99.90;;;;;;5025435;28;20378;-73
2022/07/26 11:13:32;;;;;;;7.50;1.92;;;19.70;99.90;;;;;;5032907;28;20037;-72
2022/07/26 11:16:00;;;;;;;9.98;1.80;;;19.80;99.90;;;;;;5034594;28;20040;-72
2022/07/26 11:18:31;;;;;;;8.55;1.70;;;19.90;99.90;;;;;;5016278;28;20037;-72
2022/07/26 11:21:10;;;;;;;11.40;1.92;;;19.90;99.90;;;;;;5034644;28;20389;-72
2022/07/26 11:23:38;;;;;;;9.70;2.03;;;19.80;99.90;;;;;;5031698;28;20435;-72
2022/07/26 11:26:19;;;;;;;6.82;1.48;;;19.70;99.90;;;;;;5032079;28;20041;-72
2022/07/26 11:28:59;;;;;;;7.40;1.60;;;19.70;99.90;;;;;;5017171;28;20044;-72
2022/07/26 11:31:35;;;;;;;8.15;1.33;;;19.70;99.90;;;;;;5010827;28;20128;-72
2022/07/26 11:34:01;;;;;;;9.98;1.55;;;19.70;99.90;;;;;;5015405;28;20091;-72
2022/07/26 11:36:34;;;;;;;8.90;1.58;;;19.70;99.90;;;;;;5019048;28;20087;-72
2022/07/26 11:39:01;;;;;;;7.90;1.30;;;19.80;99.90;;;;;;5017991;28;20401;-72
2022/07/26 11:41:28;;;;;;;7.78;1.38;;;19.80;99.90;;;;;;4998412;28;20124;-72
2022/07/26 11:43:55;;;;;;;7.85;1.27;;;19.70;99.90;;;;;;4999173;28;20033;-72
2022/07/26 11:46:21;;;;;;;10.50;1.60;;;19.70;99.90;;;;;;5004959;28;20049;-72
2022/07/26 11:48:47;;;;;;;6.00;1.30;;;19.70;99.90;;;;;;5000482;28;20042;-72
2022/07/26 11:51:17;;;;;;;8.35;1.40;;;19.70;99.90;;;;;;5018034;28;20045;-72
2022/07/26 11:53:43;;;;;;;8.85;1.45;;;19.70;99.90;;;;;;5001376;28;20402;-72
2022/07/26 11:56:14;;;;;;;9.35;1.30;;;19.60;99.90;;;;;;5016866;28;20108;-72
2022/07/26 11:58:41;;;;;;;6.50;1.30;;;19.60;99.90;;;;;;5017851;28;20037;-72
2022/07/26 12:01:08;;;;;;;6.75;1.60;;;19.50;99.90;;;;;;4999019;28;20078;-72
2022/07/26 12:03:37;;;;;;;6.68;1.15;;;19.40;99.90;;;;;;5000394;28;20049;-72
2022/07/26 12:06:08;;;;;;;9.15;1.52;;;19.30;99.90;;;;;;5002691;28;20037;-72
2022/07/26 12:08:41;;;;;;;7.47;1.10;;;19.30;99.90;;;;;;5000445;28;20061;-72
2022/07/26 12:11:07;;;;;;;6.30;1.33;;;19.30;99.90;;;;;;5006448;28;20382;-72
2022/07/26 12:13:50;;;;;;;8.13;1.13;;;19.40;99.90;;;;;;5020710;28;20037;-72
2022/07/26 12:16:41;;;;;;;5.60;1.10;;;19.40;99.90;;;;;;5037246;28;20048;-72
2022/07/26 12:19:29;;;;;;;3.88;1.00;;;19.50;99.90;;;;;;5016357;28;20037;-72
2022/07/26 12:21:58;;;;;;;6.50;1.05;;;19.40;99.90;;;;;;5033884;28;20498;-71
2022/07/26 12:24:44;;;;;;;6.18;1.35;;;19.40;99.90;;;;;;5012869;28;20116;-72
2022/07/26 12:27:12;;;;;;;9.05;1.85;;;19.40;99.90;;;;;;5001526;28;20045;-72
2022/07/26 12:29:40;;;;;;;6.70;1.08;;;19.30;99.90;;;;;;4998166;28;20069;-72
2022/07/26 12:32:33;;;;;;;5.45;1.45;;;19.30;99.90;;;;;;5015634;28;20103;-72
2022/07/26 12:35:02;;;;;;;6.28;1.05;;;19.40;99.90;;;;;;4994902;28;20094;-72
2022/07/26 12:37:29;;;;;;;6.97;1.27;;;19.50;99.90;;;;;;5012517;28;20053;-72
2022/07/26 12:40:04;;;;;;;5.88;1.00;;;19.60;99.90;;;;;;4997041;28;20099;-72
2022/07/26 12:42:51;;;;;;;4.78;1.13;;;19.60;99.90;;;;;;4981921;28;20038;-72
2022/07/26 12:45:19;;;;;;;5.50;1.17;;;19.60;99.90;;;;;;4980976;28;20095;-73
2022/07/26 12:47:47;;;;;;;8.07;1.30;;;19.60;99.60;;;;;;4999254;28;20049;-75
2022/07/26 12:50:14;;;;;;;9.05;1.67;;;19.60;99.90;;;;;;4999328;28;20041;-75